YPPD/PHE METAR and TAF weather

Enter ICAO airport designator
Station Type Date Time Source
YPPD METAR 2020/07/14 17:30 UTC NOAA

YPPD 141730Z AUTO 16007KT 9999 // NCD 13/09 Q1016 RF00.0/000.0


Station Type Date Time Source
YPPD Decoded METAR 2020/07/14 17:30 UTC NOAA

Port Hedland Pardoo, Australia (YPPD) 20-06S 119-34E 10M
Jul 14, 2020 - 01:30 PM EDT / 2020.07.14 1730 UTC
Wind: from the SSE (160 degrees) at 8 MPH (7 KT):0
Visibility: greater than 7 mile(s):0
Temperature: 55 F (13 C)
Dew Point: 48 F (9 C)
Relative Humidity: 76%
Pressure (altimeter): 30.00 in. Hg (1016 hPa)
ob: YPPD 141730Z AUTO 16007KT 9999 // NCD 13/09 Q1016 RF00.0/000.0
cycle: 17

Station Type Date Time Source
YPPD TAF 2020/07/14 18:36 UTC NOAA

TAF YPPD 141730Z 1418/1518 14005KT CAVOK
FM150000 09012KT CAVOK
FM150500 03012KT CAVOK
FM151400 13008KT CAVOK

Example: see airport list